sensor_id;sensor_type;location;lat;lon;timestamp;P1;durP1;ratioP1;P2;durP2;ratioP2
9906;SDS011;4992;51.628;6.664;2024-03-08T00:01:47;22.27;;;15.93;;
9906;SDS011;4992;51.628;6.664;2024-03-08T00:04:13;19.23;;;16.17;;
9906;SDS011;4992;51.628;6.664;2024-03-08T00:06:40;18.70;;;15.63;;
9906;SDS011;4992;51.628;6.664;2024-03-08T00:09:06;18.33;;;16.43;;
9906;SDS011;4992;51.628;6.664;2024-03-08T00:11:32;20.93;;;16.47;;
9906;SDS011;4992;51.628;6.664;2024-03-08T00:13:58;19.57;;;15.70;;
9906;SDS011;4992;51.628;6.664;2024-03-08T00:16:24;19.83;;;16.43;;
9906;SDS011;4992;51.628;6.664;2024-03-08T00:18:49;19.87;;;16.47;;
9906;SDS011;4992;51.628;6.664;2024-03-08T00:21:15;18.30;;;15.93;;
9906;SDS011;4992;51.628;6.664;2024-03-08T00:23:40;22.03;;;16.47;;
9906;SDS011;4992;51.628;6.664;2024-03-08T00:26:06;21.63;;;16.63;;
9906;SDS011;4992;51.628;6.664;2024-03-08T00:28:32;19.13;;;17.07;;
9906;SDS011;4992;51.628;6.664;2024-03-08T00:30:59;18.80;;;16.50;;
9906;SDS011;4992;51.628;6.664;2024-03-08T00:33:25;19.40;;;17.00;;
9906;SDS011;4992;51.628;6.664;2024-03-08T00:35:52;21.10;;;17.83;;
9906;SDS011;4992;51.628;6.664;2024-03-08T00:38:18;18.10;;;16.10;;
9906;SDS011;4992;51.628;6.664;2024-03-08T00:40:43;19.20;;;16.57;;
9906;SDS011;4992;51.628;6.664;2024-03-08T00:43:09;21.87;;;17.93;;
9906;SDS011;4992;51.628;6.664;2024-03-08T00:45:35;20.77;;;16.70;;
9906;SDS011;4992;51.628;6.664;2024-03-08T00:48:01;19.77;;;17.10;;
9906;SDS011;4992;51.628;6.664;2024-03-08T00:50:28;19.63;;;17.53;;
9906;SDS011;4992;51.628;6.664;2024-03-08T00:52:53;20.77;;;16.87;;
9906;SDS011;4992;51.628;6.664;2024-03-08T00:55:19;21.47;;;18.17;;
9906;SDS011;4992;51.628;6.664;2024-03-08T00:57:45;22.40;;;18.93;;
9906;SDS011;4992;51.628;6.664;2024-03-08T01:00:11;23.03;;;18.50;;
9906;SDS011;4992;51.628;6.664;2024-03-08T01:02:40;22.33;;;17.43;;
9906;SDS011;4992;51.628;6.664;2024-03-08T01:05:06;20.60;;;18.40;;
9906;SDS011;4992;51.628;6.664;2024-03-08T01:07:34;23.13;;;18.43;;
9906;SDS011;4992;51.628;6.664;2024-03-08T01:10:00;20.50;;;18.13;;
9906;SDS011;4992;51.628;6.664;2024-03-08T01:12:27;20.50;;;18.30;;
9906;SDS011;4992;51.628;6.664;2024-03-08T01:14:53;21.87;;;19.13;;
9906;SDS011;4992;51.628;6.664;2024-03-08T01:17:19;22.80;;;19.17;;
9906;SDS011;4992;51.628;6.664;2024-03-08T01:19:44;24.00;;;18.53;;
9906;SDS011;4992;51.628;6.664;2024-03-08T01:22:10;21.87;;;19.20;;
9906;SDS011;4992;51.628;6.664;2024-03-08T01:24:36;20.97;;;18.77;;
9906;SDS011;4992;51.628;6.664;2024-03-08T01:27:02;20.77;;;18.07;;
9906;SDS011;4992;51.628;6.664;2024-03-08T01:29:28;21.93;;;19.00;;
9906;SDS011;4992;51.628;6.664;2024-03-08T01:31:54;20.40;;;18.37;;
9906;SDS011;4992;51.628;6.664;2024-03-08T01:34:21;21.03;;;18.67;;
9906;SDS011;4992;51.628;6.664;2024-03-08T01:36:47;19.97;;;17.83;;
9906;SDS011;4992;51.628;6.664;2024-03-08T01:39:13;26.00;;;20.10;;
9906;SDS011;4992;51.628;6.664;2024-03-08T01:41:39;23.40;;;19.33;;
9906;SDS011;4992;51.628;6.664;2024-03-08T01:44:05;23.40;;;19.30;;
9906;SDS011;4992;51.628;6.664;2024-03-08T01:46:32;23.60;;;19.37;;
9906;SDS011;4992;51.628;6.664;2024-03-08T01:48:59;22.13;;;19.07;;
9906;SDS011;4992;51.628;6.664;2024-03-08T01:51:26;24.97;;;19.67;;
9906;SDS011;4992;51.628;6.664;2024-03-08T01:53:53;22.90;;;19.30;;
9906;SDS011;4992;51.628;6.664;2024-03-08T01:56:22;20.40;;;17.90;;
9906;SDS011;4992;51.628;6.664;2024-03-08T01:58:50;22.83;;;19.63;;
9906;SDS011;4992;51.628;6.664;2024-03-08T02:01:15;23.63;;;19.87;;
9906;SDS011;4992;51.628;6.664;2024-03-08T02:03:41;23.53;;;19.67;;
9906;SDS011;4992;51.628;6.664;2024-03-08T02:06:09;21.97;;;19.30;;
9906;SDS011;4992;51.628;6.664;2024-03-08T02:08:36;23.27;;;19.43;;
9906;SDS011;4992;51.628;6.664;2024-03-08T02:11:03;22.17;;;18.67;;
9906;SDS011;4992;51.628;6.664;2024-03-08T02:13:29;24.03;;;19.87;;
9906;SDS011;4992;51.628;6.664;2024-03-08T02:15:56;23.67;;;19.10;;
9906;SDS011;4992;51.628;6.664;2024-03-08T02:18:24;23.20;;;19.30;;
9906;SDS011;4992;51.628;6.664;2024-03-08T02:20:53;23.97;;;19.53;;
9906;SDS011;4992;51.628;6.664;2024-03-08T02:23:20;24.80;;;20.40;;
9906;SDS011;4992;51.628;6.664;2024-03-08T02:25:46;21.33;;;18.73;;
9906;SDS011;4992;51.628;6.664;2024-03-08T02:28:13;24.63;;;20.40;;
9906;SDS011;4992;51.628;6.664;2024-03-08T02:30:39;24.20;;;19.97;;
9906;SDS011;4992;51.628;6.664;2024-03-08T02:33:05;23.57;;;19.67;;
9906;SDS011;4992;51.628;6.664;2024-03-08T02:35:31;23.53;;;20.17;;
9906;SDS011;4992;51.628;6.664;2024-03-08T02:37:58;22.23;;;19.73;;
9906;SDS011;4992;51.628;6.664;2024-03-08T02:40:28;29.53;;;20.73;;
9906;SDS011;4992;51.628;6.664;2024-03-08T02:42:54;23.33;;;20.63;;
9906;SDS011;4992;51.628;6.664;2024-03-08T02:45:19;23.33;;;20.70;;
9906;SDS011;4992;51.628;6.664;2024-03-08T02:47:45;23.50;;;20.97;;
9906;SDS011;4992;51.628;6.664;2024-03-08T02:50:11;25.03;;;20.30;;
9906;SDS011;4992;51.628;6.664;2024-03-08T02:52:37;25.80;;;20.97;;
9906;SDS011;4992;51.628;6.664;2024-03-08T02:55:02;25.07;;;20.90;;
9906;SDS011;4992;51.628;6.664;2024-03-08T02:57:31;24.13;;;20.97;;
9906;SDS011;4992;51.628;6.664;2024-03-08T02:59:57;25.07;;;21.13;;
9906;SDS011;4992;51.628;6.664;2024-03-08T03:02:24;24.57;;;21.07;;
9906;SDS011;4992;51.628;6.664;2024-03-08T03:04:51;25.87;;;19.70;;
9906;SDS011;4992;51.628;6.664;2024-03-08T03:07:17;28.77;;;21.83;;
9906;SDS011;4992;51.628;6.664;2024-03-08T03:09:42;25.13;;;21.50;;
9906;SDS011;4992;51.628;6.664;2024-03-08T03:12:08;22.87;;;19.73;;
9906;SDS011;4992;51.628;6.664;2024-03-08T03:14:35;25.23;;;20.47;;
9906;SDS011;4992;51.628;6.664;2024-03-08T03:17:03;28.47;;;21.53;;
9906;SDS011;4992;51.628;6.664;2024-03-08T03:19:29;24.63;;;21.00;;
9906;SDS011;4992;51.628;6.664;2024-03-08T03:21:55;24.50;;;20.30;;
9906;SDS011;4992;51.628;6.664;2024-03-08T03:24:21;26.10;;;20.40;;
9906;SDS011;4992;51.628;6.664;2024-03-08T03:26:46;24.37;;;20.67;;
9906;SDS011;4992;51.628;6.664;2024-03-08T03:29:13;25.73;;;21.70;;
9906;SDS011;4992;51.628;6.664;2024-03-08T03:31:40;26.57;;;20.37;;
9906;SDS011;4992;51.628;6.664;2024-03-08T03:34:06;26.77;;;21.30;;
9906;SDS011;4992;51.628;6.664;2024-03-08T03:36:33;25.67;;;21.20;;
9906;SDS011;4992;51.628;6.664;2024-03-08T03:39:00;27.00;;;22.17;;
9906;SDS011;4992;51.628;6.664;2024-03-08T03:41:45;23.47;;;20.50;;
9906;SDS011;4992;51.628;6.664;2024-03-08T03:44:11;27.00;;;21.20;;
9906;SDS011;4992;51.628;6.664;2024-03-08T03:46:37;25.90;;;20.83;;
9906;SDS011;4992;51.628;6.664;2024-03-08T03:49:02;26.33;;;21.23;;
9906;SDS011;4992;51.628;6.664;2024-03-08T03:51:28;27.47;;;21.77;;
9906;SDS011;4992;51.628;6.664;2024-03-08T03:53:55;27.70;;;21.50;;
9906;SDS011;4992;51.628;6.664;2024-03-08T03:56:24;26.67;;;22.07;;
9906;SDS011;4992;51.628;6.664;2024-03-08T03:58:51;27.07;;;21.10;;
9906;SDS011;4992;51.628;6.664;2024-03-08T04:01:17;24.53;;;21.03;;
9906;SDS011;4992;51.628;6.664;2024-03-08T04:03:42;26.60;;;21.60;;
9906;SDS011;4992;51.628;6.664;2024-03-08T04:06:08;26.77;;;22.00;;
9906;SDS011;4992;51.628;6.664;2024-03-08T04:08:33;28.40;;;21.50;;
9906;SDS011;4992;51.628;6.664;2024-03-08T04:11:00;25.87;;;20.17;;
9906;SDS011;4992;51.628;6.664;2024-03-08T04:13:25;25.43;;;21.80;;
9906;SDS011;4992;51.628;6.664;2024-03-08T04:15:51;26.40;;;21.73;;
9906;SDS011;4992;51.628;6.664;2024-03-08T04:18:17;24.93;;;21.10;;
9906;SDS011;4992;51.628;6.664;2024-03-08T04:20:43;28.37;;;22.87;;
9906;SDS011;4992;51.628;6.664;2024-03-08T04:23:08;24.80;;;21.20;;
9906;SDS011;4992;51.628;6.664;2024-03-08T04:25:34;27.67;;;22.10;;
9906;SDS011;4992;51.628;6.664;2024-03-08T04:27:59;25.10;;;21.23;;
9906;SDS011;4992;51.628;6.664;2024-03-08T04:30:25;27.43;;;21.97;;
9906;SDS011;4992;51.628;6.664;2024-03-08T04:32:53;26.73;;;22.07;;
9906;SDS011;4992;51.628;6.664;2024-03-08T04:35:19;26.87;;;22.03;;
9906;SDS011;4992;51.628;6.664;2024-03-08T04:37:45;27.17;;;21.27;;
9906;SDS011;4992;51.628;6.664;2024-03-08T04:40:11;26.37;;;22.03;;
9906;SDS011;4992;51.628;6.664;2024-03-08T04:42:36;28.33;;;22.67;;
9906;SDS011;4992;51.628;6.664;2024-03-08T04:45:04;27.93;;;22.00;;
9906;SDS011;4992;51.628;6.664;2024-03-08T04:47:29;28.83;;;22.87;;
9906;SDS011;4992;51.628;6.664;2024-03-08T04:49:55;25.47;;;20.73;;
9906;SDS011;4992;51.628;6.664;2024-03-08T04:52:22;25.63;;;22.27;;
9906;SDS011;4992;51.628;6.664;2024-03-08T04:54:47;27.40;;;22.50;;
9906;SDS011;4992;51.628;6.664;2024-03-08T04:57:13;26.03;;;21.63;;
9906;SDS011;4992;51.628;6.664;2024-03-08T04:59:38;28.60;;;22.33;;
9906;SDS011;4992;51.628;6.664;2024-03-08T05:02:04;27.90;;;21.57;;
9906;SDS011;4992;51.628;6.664;2024-03-08T05:04:32;27.07;;;22.13;;
9906;SDS011;4992;51.628;6.664;2024-03-08T05:06:57;28.43;;;23.23;;
9906;SDS011;4992;51.628;6.664;2024-03-08T05:09:26;28.67;;;21.77;;
9906;SDS011;4992;51.628;6.664;2024-03-08T05:11:54;29.53;;;23.03;;
9906;SDS011;4992;51.628;6.664;2024-03-08T05:14:19;27.07;;;21.67;;
9906;SDS011;4992;51.628;6.664;2024-03-08T05:16:45;27.67;;;22.80;;
9906;SDS011;4992;51.628;6.664;2024-03-08T05:19:15;28.90;;;22.50;;
9906;SDS011;4992;51.628;6.664;2024-03-08T05:21:42;27.43;;;22.00;;
9906;SDS011;4992;51.628;6.664;2024-03-08T05:24:09;26.17;;;21.90;;
9906;SDS011;4992;51.628;6.664;2024-03-08T05:26:35;29.77;;;22.53;;
9906;SDS011;4992;51.628;6.664;2024-03-08T05:29:02;29.87;;;22.33;;
9906;SDS011;4992;51.628;6.664;2024-03-08T05:31:28;31.47;;;23.30;;
9906;SDS011;4992;51.628;6.664;2024-03-08T05:33:55;28.13;;;22.77;;
9906;SDS011;4992;51.628;6.664;2024-03-08T05:36:21;28.90;;;22.77;;
9906;SDS011;4992;51.628;6.664;2024-03-08T05:38:47;29.43;;;23.10;;
9906;SDS011;4992;51.628;6.664;2024-03-08T05:41:14;27.50;;;22.23;;
9906;SDS011;4992;51.628;6.664;2024-03-08T05:43:40;28.70;;;22.53;;
9906;SDS011;4992;51.628;6.664;2024-03-08T05:46:06;30.17;;;22.23;;
9906;SDS011;4992;51.628;6.664;2024-03-08T05:48:32;28.13;;;22.47;;
9906;SDS011;4992;51.628;6.664;2024-03-08T05:50:58;30.80;;;23.43;;
9906;SDS011;4992;51.628;6.664;2024-03-08T05:53:25;30.63;;;22.03;;
9906;SDS011;4992;51.628;6.664;2024-03-08T05:55:51;29.70;;;22.70;;
9906;SDS011;4992;51.628;6.664;2024-03-08T05:58:17;31.57;;;23.70;;
9906;SDS011;4992;51.628;6.664;2024-03-08T06:00:42;29.93;;;23.70;;
9906;SDS011;4992;51.628;6.664;2024-03-08T06:03:08;27.83;;;23.23;;
9906;SDS011;4992;51.628;6.664;2024-03-08T06:05:34;32.27;;;22.60;;
9906;SDS011;4992;51.628;6.664;2024-03-08T06:07:59;32.93;;;24.57;;
9906;SDS011;4992;51.628;6.664;2024-03-08T06:10:25;28.60;;;22.37;;
9906;SDS011;4992;51.628;6.664;2024-03-08T06:12:50;32.20;;;24.53;;
9906;SDS011;4992;51.628;6.664;2024-03-08T06:15:16;29.23;;;23.67;;
9906;SDS011;4992;51.628;6.664;2024-03-08T06:17:42;27.60;;;22.47;;
9906;SDS011;4992;51.628;6.664;2024-03-08T06:20:08;29.03;;;23.80;;
9906;SDS011;4992;51.628;6.664;2024-03-08T06:22:38;31.03;;;23.53;;
9906;SDS011;4992;51.628;6.664;2024-03-08T06:25:10;31.77;;;24.80;;
9906;SDS011;4992;51.628;6.664;2024-03-08T06:27:39;33.07;;;24.10;;
9906;SDS011;4992;51.628;6.664;2024-03-08T06:30:06;30.97;;;24.13;;
9906;SDS011;4992;51.628;6.664;2024-03-08T06:32:40;28.43;;;23.07;;
9906;SDS011;4992;51.628;6.664;2024-03-08T06:35:07;26.83;;;22.07;;
9906;SDS011;4992;51.628;6.664;2024-03-08T06:37:35;31.60;;;23.37;;
9906;SDS011;4992;51.628;6.664;2024-03-08T06:40:01;31.47;;;23.77;;
9906;SDS011;4992;51.628;6.664;2024-03-08T06:42:28;31.37;;;24.27;;
9906;SDS011;4992;51.628;6.664;2024-03-08T06:44:54;29.57;;;24.27;;
9906;SDS011;4992;51.628;6.664;2024-03-08T06:47:24;31.27;;;24.03;;
9906;SDS011;4992;51.628;6.664;2024-03-08T06:49:50;32.47;;;23.77;;
9906;SDS011;4992;51.628;6.664;2024-03-08T06:52:17;31.70;;;24.63;;
9906;SDS011;4992;51.628;6.664;2024-03-08T06:54:42;28.23;;;22.57;;
9906;SDS011;4992;51.628;6.664;2024-03-08T06:57:08;31.67;;;23.93;;
9906;SDS011;4992;51.628;6.664;2024-03-08T06:59:35;29.50;;;23.47;;
9906;SDS011;4992;51.628;6.664;2024-03-08T07:02:01;31.77;;;23.57;;
9906;SDS011;4992;51.628;6.664;2024-03-08T07:04:27;32.40;;;22.73;;
9906;SDS011;4992;51.628;6.664;2024-03-08T07:06:55;30.63;;;23.63;;
9906;SDS011;4992;51.628;6.664;2024-03-08T07:09:21;32.20;;;24.50;;
9906;SDS011;4992;51.628;6.664;2024-03-08T07:11:47;32.93;;;25.00;;
9906;SDS011;4992;51.628;6.664;2024-03-08T07:14:12;30.23;;;23.60;;
9906;SDS011;4992;51.628;6.664;2024-03-08T07:16:40;34.03;;;24.20;;
9906;SDS011;4992;51.628;6.664;2024-03-08T07:19:06;32.03;;;24.07;;
9906;SDS011;4992;51.628;6.664;2024-03-08T07:21:32;30.07;;;23.37;;
9906;SDS011;4992;51.628;6.664;2024-03-08T07:23:57;27.63;;;22.97;;
9906;SDS011;4992;51.628;6.664;2024-03-08T07:26:34;28.93;;;22.90;;
9906;SDS011;4992;51.628;6.664;2024-03-08T07:29:00;29.93;;;22.10;;
9906;SDS011;4992;51.628;6.664;2024-03-08T07:31:25;29.30;;;23.23;;
9906;SDS011;4992;51.628;6.664;2024-03-08T07:33:51;31.87;;;23.70;;
9906;SDS011;4992;51.628;6.664;2024-03-08T07:36:18;27.60;;;22.70;;
9906;SDS011;4992;51.628;6.664;2024-03-08T07:38:44;27.17;;;22.60;;
9906;SDS011;4992;51.628;6.664;2024-03-08T07:41:11;32.17;;;23.00;;
9906;SDS011;4992;51.628;6.664;2024-03-08T07:43:37;27.97;;;22.40;;
9906;SDS011;4992;51.628;6.664;2024-03-08T07:46:03;29.17;;;22.67;;
9906;SDS011;4992;51.628;6.664;2024-03-08T07:48:29;29.73;;;23.30;;
9906;SDS011;4992;51.628;6.664;2024-03-08T07:50:55;29.77;;;22.77;;
9906;SDS011;4992;51.628;6.664;2024-03-08T07:53:21;30.30;;;22.50;;
9906;SDS011;4992;51.628;6.664;2024-03-08T07:55:49;28.93;;;22.40;;
9906;SDS011;4992;51.628;6.664;2024-03-08T07:58:14;28.37;;;22.13;;
9906;SDS011;4992;51.628;6.664;2024-03-08T08:00:40;24.00;;;20.53;;
9906;SDS011;4992;51.628;6.664;2024-03-08T08:03:07;26.10;;;21.57;;
9906;SDS011;4992;51.628;6.664;2024-03-08T08:05:33;25.87;;;21.57;;
9906;SDS011;4992;51.628;6.664;2024-03-08T08:08:03;27.40;;;21.97;;
9906;SDS011;4992;51.628;6.664;2024-03-08T08:10:31;29.07;;;22.27;;
9906;SDS011;4992;51.628;6.664;2024-03-08T08:12:57;26.70;;;21.10;;
9906;SDS011;4992;51.628;6.664;2024-03-08T08:15:23;24.47;;;20.90;;
9906;SDS011;4992;51.628;6.664;2024-03-08T08:17:49;26.50;;;21.83;;
9906;SDS011;4992;51.628;6.664;2024-03-08T08:20:14;27.50;;;22.00;;
9906;SDS011;4992;51.628;6.664;2024-03-08T08:22:40;22.90;;;20.50;;
9906;SDS011;4992;51.628;6.664;2024-03-08T08:25:07;26.40;;;19.63;;
9906;SDS011;4992;51.628;6.664;2024-03-08T08:27:33;26.53;;;20.83;;
9906;SDS011;4992;51.628;6.664;2024-03-08T08:29:58;23.47;;;20.10;;
9906;SDS011;4992;51.628;6.664;2024-03-08T08:32:25;23.93;;;20.43;;
9906;SDS011;4992;51.628;6.664;2024-03-08T08:34:51;24.40;;;19.97;;
9906;SDS011;4992;51.628;6.664;2024-03-08T08:37:16;24.40;;;19.00;;
9906;SDS011;4992;51.628;6.664;2024-03-08T08:39:42;24.03;;;19.23;;
9906;SDS011;4992;51.628;6.664;2024-03-08T08:42:08;23.10;;;19.57;;
9906;SDS011;4992;51.628;6.664;2024-03-08T08:44:34;23.90;;;19.73;;
9906;SDS011;4992;51.628;6.664;2024-03-08T08:47:00;21.37;;;19.03;;
9906;SDS011;4992;51.628;6.664;2024-03-08T08:49:26;24.03;;;18.70;;
9906;SDS011;4992;51.628;6.664;2024-03-08T08:51:52;23.87;;;19.00;;
9906;SDS011;4992;51.628;6.664;2024-03-08T08:54:17;20.27;;;17.97;;
9906;SDS011;4992;51.628;6.664;2024-03-08T08:56:43;22.40;;;19.10;;
9906;SDS011;4992;51.628;6.664;2024-03-08T08:59:10;24.83;;;19.13;;
9906;SDS011;4992;51.628;6.664;2024-03-08T09:01:38;19.30;;;17.20;;
9906;SDS011;4992;51.628;6.664;2024-03-08T09:04:04;21.13;;;17.90;;
9906;SDS011;4992;51.628;6.664;2024-03-08T09:06:30;19.90;;;17.80;;
9906;SDS011;4992;51.628;6.664;2024-03-08T09:08:56;20.90;;;18.23;;
9906;SDS011;4992;51.628;6.664;2024-03-08T09:11:22;20.73;;;17.67;;
9906;SDS011;4992;51.628;6.664;2024-03-08T09:13:50;22.03;;;18.43;;
9906;SDS011;4992;51.628;6.664;2024-03-08T09:16:15;24.37;;;18.73;;
9906;SDS011;4992;51.628;6.664;2024-03-08T09:18:41;24.73;;;20.60;;
9906;SDS011;4992;51.628;6.664;2024-03-08T09:21:07;20.67;;;18.30;;
9906;SDS011;4992;51.628;6.664;2024-03-08T09:23:35;20.17;;;17.80;;
9906;SDS011;4992;51.628;6.664;2024-03-08T09:26:03;20.73;;;18.07;;
9906;SDS011;4992;51.628;6.664;2024-03-08T09:28:29;20.17;;;17.97;;
9906;SDS011;4992;51.628;6.664;2024-03-08T09:30:55;24.20;;;18.83;;
9906;SDS011;4992;51.628;6.664;2024-03-08T09:33:20;24.13;;;18.83;;
9906;SDS011;4992;51.628;6.664;2024-03-08T09:35:47;22.33;;;18.23;;
9906;SDS011;4992;51.628;6.664;2024-03-08T09:38:13;22.47;;;19.10;;
9906;SDS011;4992;51.628;6.664;2024-03-08T09:40:42;23.73;;;19.43;;
9906;SDS011;4992;51.628;6.664;2024-03-08T09:43:08;24.67;;;19.43;;
9906;SDS011;4992;51.628;6.664;2024-03-08T09:45:37;24.03;;;18.77;;
9906;SDS011;4992;51.628;6.664;2024-03-08T09:48:06;22.60;;;17.90;;
9906;SDS011;4992;51.628;6.664;2024-03-08T09:50:37;22.80;;;18.37;;
9906;SDS011;4992;51.628;6.664;2024-03-08T09:53:03;22.83;;;18.63;;
9906;SDS011;4992;51.628;6.664;2024-03-08T09:55:29;19.73;;;17.43;;
9906;SDS011;4992;51.628;6.664;2024-03-08T09:57:59;19.70;;;16.93;;
9906;SDS011;4992;51.628;6.664;2024-03-08T10:00:45;19.10;;;16.80;;
9906;SDS011;4992;51.628;6.664;2024-03-08T10:03:11;19.30;;;17.03;;
9906;SDS011;4992;51.628;6.664;2024-03-08T10:05:39;21.83;;;18.30;;
9906;SDS011;4992;51.628;6.664;2024-03-08T10:08:06;18.60;;;16.50;;
9906;SDS011;4992;51.628;6.664;2024-03-08T10:10:34;19.80;;;17.70;;
9906;SDS011;4992;51.628;6.664;2024-03-08T10:13:00;18.83;;;16.37;;
9906;SDS011;4992;51.628;6.664;2024-03-08T10:15:27;19.93;;;17.50;;
9906;SDS011;4992;51.628;6.664;2024-03-08T10:17:55;20.97;;;17.10;;
9906;SDS011;4992;51.628;6.664;2024-03-08T10:20:21;19.92;;;17.83;;
9906;SDS011;4992;51.628;6.664;2024-03-08T10:22:48;19.67;;;17.03;;
9906;SDS011;4992;51.628;6.664;2024-03-08T10:25:15;19.23;;;16.77;;
9906;SDS011;4992;51.628;6.664;2024-03-08T10:27:40;20.13;;;16.50;;
9906;SDS011;4992;51.628;6.664;2024-03-08T10:30:08;21.00;;;16.27;;
9906;SDS011;4992;51.628;6.664;2024-03-08T10:32:38;19.83;;;16.77;;
9906;SDS011;4992;51.628;6.664;2024-03-08T10:35:06;19.17;;;16.00;;
9906;SDS011;4992;51.628;6.664;2024-03-08T10:37:33;20.20;;;17.40;;
9906;SDS011;4992;51.628;6.664;2024-03-08T10:40:04;18.60;;;16.53;;
9906;SDS011;4992;51.628;6.664;2024-03-08T10:42:35;20.27;;;16.60;;
9906;SDS011;4992;51.628;6.664;2024-03-08T10:45:07;18.27;;;15.63;;
9906;SDS011;4992;51.628;6.664;2024-03-08T10:47:43;18.53;;;15.83;;
9906;SDS011;4992;51.628;6.664;2024-03-08T10:50:20;21.30;;;16.73;;
9906;SDS011;4992;51.628;6.664;2024-03-08T10:52:48;18.80;;;16.80;;
9906;SDS011;4992;51.628;6.664;2024-03-08T10:55:15;17.80;;;15.90;;
9906;SDS011;4992;51.628;6.664;2024-03-08T10:57:47;17.90;;;16.00;;
9906;SDS011;4992;51.628;6.664;2024-03-08T11:00:13;18.25;;;16.35;;
9906;SDS011;4992;51.628;6.664;2024-03-08T11:02:42;18.27;;;16.23;;
9906;SDS011;4992;51.628;6.664;2024-03-08T11:08:00;18.30;;;15.02;;
9906;SDS011;4992;51.628;6.664;2024-03-08T11:10:26;20.02;;;15.13;;
9906;SDS011;4992;51.628;6.664;2024-03-08T11:12:52;17.77;;;15.68;;
9906;SDS011;4992;51.628;6.664;2024-03-08T11:15:18;17.75;;;15.07;;
9906;SDS011;4992;51.628;6.664;2024-03-08T11:17:47;16.35;;;14.65;;
9906;SDS011;4992;51.628;6.664;2024-03-08T11:20:15;16.38;;;14.77;;
9906;SDS011;4992;51.628;6.664;2024-03-08T11:22:42;18.13;;;16.23;;
9906;SDS011;4992;51.628;6.664;2024-03-08T11:25:33;20.35;;;15.38;;
9906;SDS011;4992;51.628;6.664;2024-03-08T11:28:24;17.13;;;14.60;;
9906;SDS011;4992;51.628;6.664;2024-03-08T11:33:27;17.08;;;15.35;;
9906;SDS011;4992;51.628;6.664;2024-03-08T11:38:41;16.05;;;14.45;;
9906;SDS011;4992;51.628;6.664;2024-03-08T11:41:13;16.27;;;14.57;;
9906;SDS011;4992;51.628;6.664;2024-03-08T11:43:47;17.30;;;15.35;;
9906;SDS011;4992;51.628;6.664;2024-03-08T11:46:13;16.88;;;14.52;;
9906;SDS011;4992;51.628;6.664;2024-03-08T11:48:40;16.02;;;14.52;;
9906;SDS011;4992;51.628;6.664;2024-03-08T11:51:12;18.10;;;15.80;;
9906;SDS011;4992;51.628;6.664;2024-03-08T11:53:39;19.58;;;14.88;;
9906;SDS011;4992;51.628;6.664;2024-03-08T11:56:09;17.58;;;14.73;;
9906;SDS011;4992;51.628;6.664;2024-03-08T11:58:36;17.42;;;15.68;;
9906;SDS011;4992;51.628;6.664;2024-03-08T12:01:05;16.90;;;15.10;;
9906;SDS011;4992;51.628;6.664;2024-03-08T12:03:32;16.38;;;14.65;;
9906;SDS011;4992;51.628;6.664;2024-03-08T12:05:59;16.40;;;14.80;;
9906;SDS011;4992;51.628;6.664;2024-03-08T12:08:25;17.65;;;15.20;;
9906;SDS011;4992;51.628;6.664;2024-03-08T12:10:53;16.83;;;15.13;;
9906;SDS011;4992;51.628;6.664;2024-03-08T12:13:24;17.33;;;15.63;;
9906;SDS011;4992;51.628;6.664;2024-03-08T12:15:57;17.05;;;15.35;;
9906;SDS011;4992;51.628;6.664;2024-03-08T12:18:26;17.67;;;16.00;;
9906;SDS011;4992;51.628;6.664;2024-03-08T12:21:03;16.80;;;15.05;;
9906;SDS011;4992;51.628;6.664;2024-03-08T12:23:33;16.85;;;15.02;;
9906;SDS011;4992;51.628;6.664;2024-03-08T12:26:15;18.83;;;16.30;;
9906;SDS011;4992;51.628;6.664;2024-03-08T12:28:43;18.90;;;16.02;;
9906;SDS011;4992;51.628;6.664;2024-03-08T12:31:13;17.45;;;15.52;;
9906;SDS011;4992;51.628;6.664;2024-03-08T12:33:54;17.23;;;15.40;;
9906;SDS011;4992;51.628;6.664;2024-03-08T12:36:21;16.92;;;15.07;;
9906;SDS011;4992;51.628;6.664;2024-03-08T12:38:47;16.65;;;14.95;;
9906;SDS011;4992;51.628;6.664;2024-03-08T12:41:15;16.27;;;14.68;;
9906;SDS011;4992;51.628;6.664;2024-03-08T12:43:42;17.27;;;15.00;;
9906;SDS011;4992;51.628;6.664;2024-03-08T12:46:13;17.85;;;16.02;;
9906;SDS011;4992;51.628;6.664;2024-03-08T12:48:39;16.38;;;14.75;;
9906;SDS011;4992;51.628;6.664;2024-03-08T12:51:08;15.38;;;13.98;;
9906;SDS011;4992;51.628;6.664;2024-03-08T12:53:34;16.27;;;14.68;;
9906;SDS011;4992;51.628;6.664;2024-03-08T12:55:59;16.77;;;14.40;;
9906;SDS011;4992;51.628;6.664;2024-03-08T12:58:25;15.98;;;14.38;;
9906;SDS011;4992;51.628;6.664;2024-03-08T13:00:51;17.45;;;14.75;;
9906;SDS011;4992;51.628;6.664;2024-03-08T13:03:17;15.77;;;14.35;;
9906;SDS011;4992;51.628;6.664;2024-03-08T13:05:43;15.07;;;13.60;;
9906;SDS011;4992;51.628;6.664;2024-03-08T13:08:08;15.23;;;13.70;;
9906;SDS011;4992;51.628;6.664;2024-03-08T13:10:40;15.10;;;13.70;;
9906;SDS011;4992;51.628;6.664;2024-03-08T13:13:08;15.57;;;14.05;;
9906;SDS011;4992;51.628;6.664;2024-03-08T13:15:35;15.45;;;13.85;;
9906;SDS011;4992;51.628;6.664;2024-03-08T13:18:01;15.40;;;13.80;;
9906;SDS011;4992;51.628;6.664;2024-03-08T13:20:26;15.15;;;13.65;;
9906;SDS011;4992;51.628;6.664;2024-03-08T13:22:53;14.93;;;13.55;;
9906;SDS011;4992;51.628;6.664;2024-03-08T13:25:19;16.45;;;14.52;;
9906;SDS011;4992;51.628;6.664;2024-03-08T13:27:45;16.35;;;13.65;;
9906;SDS011;4992;51.628;6.664;2024-03-08T13:30:11;14.95;;;13.50;;
9906;SDS011;4992;51.628;6.664;2024-03-08T13:32:41;14.82;;;13.32;;
9906;SDS011;4992;51.628;6.664;2024-03-08T13:35:09;14.25;;;12.85;;
9906;SDS011;4992;51.628;6.664;2024-03-08T13:37:39;14.73;;;13.23;;
9906;SDS011;4992;51.628;6.664;2024-03-08T13:40:05;14.52;;;13.13;;
9906;SDS011;4992;51.628;6.664;2024-03-08T13:42:35;14.40;;;13.10;;
9906;SDS011;4992;51.628;6.664;2024-03-08T13:45:05;13.75;;;12.32;;
9906;SDS011;4992;51.628;6.664;2024-03-08T13:47:34;14.80;;;13.10;;
9906;SDS011;4992;51.628;6.664;2024-03-08T13:49:59;16.15;;;12.40;;
9906;SDS011;4992;51.628;6.664;2024-03-08T13:52:25;13.90;;;12.60;;
9906;SDS011;4992;51.628;6.664;2024-03-08T13:54:54;14.82;;;13.32;;
9906;SDS011;4992;51.628;6.664;2024-03-08T13:57:20;13.32;;;12.15;;
9906;SDS011;4992;51.628;6.664;2024-03-08T13:59:47;13.95;;;12.45;;
9906;SDS011;4992;51.628;6.664;2024-03-08T14:02:14;12.68;;;11.48;;
9906;SDS011;4992;51.628;6.664;2024-03-08T14:04:39;14.23;;;12.13;;
9906;SDS011;4992;51.628;6.664;2024-03-08T14:07:06;13.32;;;12.02;;
9906;SDS011;4992;51.628;6.664;2024-03-08T14:09:33;14.43;;;13.00;;
9906;SDS011;4992;51.628;6.664;2024-03-08T14:12:05;12.27;;;11.18;;
9906;SDS011;4992;51.628;6.664;2024-03-08T14:14:32;11.88;;;10.80;;
9906;SDS011;4992;51.628;6.664;2024-03-08T14:17:00;11.68;;;10.65;;
9906;SDS011;4992;51.628;6.664;2024-03-08T14:19:26;11.35;;;10.23;;
9906;SDS011;4992;51.628;6.664;2024-03-08T14:21:52;12.15;;;10.50;;
9906;SDS011;4992;51.628;6.664;2024-03-08T14:24:18;11.10;;;9.98;;
9906;SDS011;4992;51.628;6.664;2024-03-08T14:26:44;11.48;;;10.30;;
9906;SDS011;4992;51.628;6.664;2024-03-08T14:29:10;11.75;;;10.73;;
9906;SDS011;4992;51.628;6.664;2024-03-08T14:31:36;12.20;;;11.10;;
9906;SDS011;4992;51.628;6.664;2024-03-08T14:34:02;11.48;;;10.45;;
9906;SDS011;4992;51.628;6.664;2024-03-08T14:36:28;12.27;;;10.98;;
9906;SDS011;4992;51.628;6.664;2024-03-08T14:38:54;11.43;;;10.25;;
9906;SDS011;4992;51.628;6.664;2024-03-08T14:41:20;12.70;;;11.40;;
9906;SDS011;4992;51.628;6.664;2024-03-08T14:43:47;12.85;;;11.63;;
9906;SDS011;4992;51.628;6.664;2024-03-08T14:46:13;12.43;;;11.23;;
9906;SDS011;4992;51.628;6.664;2024-03-08T14:48:42;12.73;;;11.52;;
9906;SDS011;4992;51.628;6.664;2024-03-08T14:51:08;13.68;;;11.23;;
9906;SDS011;4992;51.628;6.664;2024-03-08T14:53:36;13.23;;;11.85;;
9906;SDS011;4992;51.628;6.664;2024-03-08T14:56:05;13.02;;;11.73;;